createdAt,value
2022-12-14T00:01:54.616Z,15.70
2022-12-14T00:04:22.645Z,15.85
2022-12-14T00:06:50.302Z,14.60
2022-12-14T00:09:17.933Z,14.50
2022-12-14T00:11:45.939Z,15.65
2022-12-14T00:14:13.570Z,13.82
2022-12-14T00:16:41.123Z,15.55
2022-12-14T00:19:11.729Z,14.15
2022-12-14T00:21:39.705Z,14.07
2022-12-14T00:24:07.238Z,15.63
2022-12-14T00:26:34.875Z,15.05
2022-12-14T00:29:03.121Z,13.35
2022-12-14T00:31:32.190Z,13.00
2022-12-14T00:34:01.479Z,12.38
2022-12-14T00:36:32.128Z,11.60
2022-12-14T00:38:59.997Z,11.07
2022-12-14T00:41:27.915Z,11.48
2022-12-14T00:43:55.457Z,11.50
2022-12-14T00:46:23.380Z,11.80
2022-12-14T00:48:50.965Z,11.60
2022-12-14T00:51:18.768Z,11.20
2022-12-14T00:53:46.462Z,10.40
2022-12-14T00:56:14.490Z,10.18
2022-12-14T00:58:42.064Z,10.55
2022-12-14T01:01:16.366Z,10.75
2022-12-14T01:03:44.038Z,11.40
2022-12-14T01:06:20.745Z,12.27
2022-12-14T01:08:49.081Z,11.38
2022-12-14T01:11:17.528Z,9.38
2022-12-14T01:13:49.390Z,9.60
2022-12-14T01:16:18.085Z,11.35
2022-12-14T01:18:45.863Z,11.43
2022-12-14T01:21:19.152Z,11.07
2022-12-14T01:23:47.904Z,10.18
2022-12-14T01:26:16.570Z,11.38
2022-12-14T01:28:46.197Z,10.90
2022-12-14T01:31:17.009Z,9.73
2022-12-14T01:33:45.290Z,10.77
2022-12-14T01:36:19.553Z,8.93
2022-12-14T01:38:48.185Z,9.00
2022-12-14T01:41:28.025Z,10.32
2022-12-14T01:44:03.073Z,12.07
2022-12-14T01:46:47.305Z,10.80
2022-12-14T01:49:24.611Z,10.57
2022-12-14T01:52:07.414Z,12.07
2022-12-14T01:54:37.986Z,12.70
2022-12-14T01:57:05.918Z,12.45
2022-12-14T01:59:38.322Z,11.60
2022-12-14T02:02:07.929Z,12.75
2022-12-14T02:04:40.071Z,12.88
2022-12-14T02:07:08.313Z,11.52
2022-12-14T02:09:39.809Z,13.60
2022-12-14T02:12:07.813Z,14.00
2022-12-14T02:14:35.581Z,13.68
2022-12-14T02:17:04.673Z,11.52
2022-12-14T02:19:32.291Z,10.15
2022-12-14T02:22:21.103Z,11.95
2022-12-14T02:24:51.514Z,9.80
2022-12-14T02:28:03.728Z,10.52
2022-12-14T02:30:41.763Z,10.15
2022-12-14T02:33:26.336Z,11.40
2022-12-14T02:36:10.801Z,10.77
2022-12-14T02:38:51.503Z,11.35
2022-12-14T02:41:19.600Z,10.15
2022-12-14T02:43:55.744Z,11.07
2022-12-14T02:46:39.532Z,8.27
2022-12-14T02:49:15.368Z,8.68
2022-12-14T02:51:53.322Z,9.80
2022-12-14T02:57:04.272Z,7.93
2022-12-14T02:59:34.335Z,9.35
2022-12-14T03:02:04.905Z,9.05
2022-12-14T03:04:32.742Z,9.32
2022-12-14T03:07:22.889Z,9.73
2022-12-14T03:09:50.439Z,10.63
2022-12-14T03:12:20.671Z,9.70
2022-12-14T03:14:54.277Z,9.32
2022-12-14T03:17:25.755Z,10.73
2022-12-14T03:19:57.839Z,10.02
2022-12-14T03:22:44.333Z,10.50
2022-12-14T03:25:24.629Z,9.65
2022-12-14T03:28:03.609Z,9.27
2022-12-14T03:30:58.668Z,10.13
2022-12-14T03:33:24.708Z,9.90
2022-12-14T03:36:03.941Z,10.30
2022-12-14T03:38:38.743Z,10.05
2022-12-14T03:41:13.881Z,10.75
2022-12-14T03:44:23.037Z,9.55
2022-12-14T03:47:03.143Z,10.57
2022-12-14T03:49:50.419Z,9.80
2022-12-14T03:52:32.834Z,9.63
2022-12-14T03:55:09.890Z,7.72
2022-12-14T03:58:03.318Z,10.13
2022-12-14T04:00:40.221Z,9.68
2022-12-14T04:03:23.023Z,9.05
2022-12-14T04:06:03.422Z,9.45
2022-12-14T04:08:55.991Z,10.77
2022-12-14T04:11:45.414Z,9.30
2022-12-14T04:14:42.977Z,10.35
2022-12-14T04:17:34.046Z,10.65
2022-12-14T04:20:34.007Z,9.70
2022-12-14T04:23:12.813Z,9.18
2022-12-14T04:26:04.641Z,8.30
2022-12-14T04:28:57.599Z,8.93
2022-12-14T04:31:29.662Z,9.90
2022-12-14T04:34:02.316Z,10.90
2022-12-14T04:36:51.777Z,10.20
2022-12-14T04:40:05.410Z,8.70
2022-12-14T04:42:39.720Z,8.23
2022-12-14T04:45:14.365Z,8.98
2022-12-14T04:47:49.449Z,10.23
2022-12-14T04:50:28.647Z,8.85
2022-12-14T04:53:04.997Z,9.73
2022-12-14T04:55:52.245Z,9.85
2022-12-14T04:58:28.873Z,10.23
2022-12-14T05:00:56.443Z,8.82
2022-12-14T05:03:34.631Z,9.05
2022-12-14T05:06:22.989Z,9.82
2022-12-14T05:08:53.648Z,8.55
2022-12-14T05:11:53.653Z,8.93
2022-12-14T05:14:35.380Z,9.02
2022-12-14T05:17:08.778Z,9.82
2022-12-14T05:19:38.023Z,11.90
2022-12-14T05:22:07.996Z,11.88
2022-12-14T05:24:35.753Z,12.80
2022-12-14T05:27:03.303Z,11.75
2022-12-14T05:29:31.035Z,12.38
2022-12-14T05:31:58.554Z,12.52
2022-12-14T05:34:26.094Z,12.23
2022-12-14T05:36:54.550Z,11.52
2022-12-14T05:39:22.003Z,13.73
2022-12-14T05:41:49.596Z,12.95
2022-12-14T05:44:17.269Z,10.43
2022-12-14T05:46:44.777Z,11.48
2022-12-14T05:49:12.457Z,10.90
2022-12-14T05:51:40.074Z,13.35
2022-12-14T05:54:07.660Z,13.13
2022-12-14T05:56:35.213Z,11.05
2022-12-14T05:59:02.925Z,12.15
2022-12-14T06:01:30.820Z,11.27
2022-12-14T06:03:58.479Z,12.05
2022-12-14T06:06:26.444Z,9.95
2022-12-14T06:08:53.914Z,11.15
2022-12-14T06:11:23.371Z,14.32
2022-12-14T06:13:51.329Z,15.45
2022-12-14T06:16:21.716Z,14.73
2022-12-14T06:18:59.908Z,12.20
2022-12-14T06:21:33.360Z,13.25
2022-12-14T06:24:01.459Z,12.30
2022-12-14T06:26:30.781Z,12.30
2022-12-14T06:28:58.636Z,12.55
2022-12-14T06:31:29.379Z,10.27
2022-12-14T06:34:01.889Z,10.77
2022-12-14T06:36:32.321Z,9.27
2022-12-14T06:39:05.667Z,10.10
2022-12-14T06:41:33.410Z,10.15
2022-12-14T06:44:09.741Z,10.23
2022-12-14T06:46:37.609Z,9.45
2022-12-14T06:49:06.750Z,9.18
2022-12-14T06:51:39.944Z,9.32
2022-12-14T06:54:07.888Z,9.82
2022-12-14T06:56:35.508Z,8.93
2022-12-14T06:59:03.114Z,9.50
2022-12-14T07:01:30.978Z,8.95
2022-12-14T07:03:59.596Z,10.80
2022-12-14T07:06:31.413Z,11.27
2022-12-14T07:09:00.478Z,12.60
2022-12-14T07:11:30.955Z,12.30
2022-12-14T07:14:00.785Z,11.10
2022-12-14T07:16:31.866Z,12.20
2022-12-14T07:19:00.488Z,11.43
2022-12-14T07:21:28.236Z,9.00
2022-12-14T07:23:56.478Z,9.00
2022-12-14T07:26:27.584Z,8.88
2022-12-14T07:28:55.617Z,7.50
2022-12-14T07:31:25.829Z,8.90
2022-12-14T07:33:55.382Z,7.45
2022-12-14T07:36:24.383Z,7.60
2022-12-14T07:38:52.438Z,9.02
2022-12-14T07:41:23.376Z,8.95
2022-12-14T07:43:53.522Z,10.20
2022-12-14T07:46:24.313Z,9.50
2022-12-14T07:48:54.541Z,9.48
2022-12-14T07:51:28.643Z,9.70
2022-12-14T07:53:56.862Z,10.65
2022-12-14T07:56:30.305Z,10.38
2022-12-14T07:58:59.598Z,8.20
2022-12-14T08:01:30.143Z,9.35
2022-12-14T08:04:00.707Z,9.57
2022-12-14T08:06:29.856Z,9.55
2022-12-14T08:08:58.129Z,10.13
2022-12-14T08:11:26.142Z,10.30
2022-12-14T08:13:58.873Z,9.93
2022-12-14T08:16:27.413Z,9.68
2022-12-14T08:18:56.586Z,8.65
2022-12-14T08:21:25.856Z,10.45
2022-12-14T08:23:54.612Z,10.75
2022-12-14T08:26:24.928Z,11.10
2022-12-14T08:28:56.363Z,9.15
2022-12-14T08:31:26.265Z,15.10
2022-12-14T08:33:54.342Z,13.57
2022-12-14T08:36:24.629Z,11.13
2022-12-14T08:38:56.863Z,9.82
2022-12-14T08:41:25.822Z,9.82
2022-12-14T08:43:58.533Z,10.38
2022-12-14T08:46:28.706Z,10.88
2022-12-14T08:48:57.136Z,10.85
2022-12-14T08:51:26.344Z,11.13
2022-12-14T08:53:55.167Z,9.63
2022-12-14T08:56:27.503Z,9.77
2022-12-14T08:58:55.929Z,9.50
2022-12-14T09:01:32.321Z,8.25
2022-12-14T09:04:08.624Z,9.10
2022-12-14T09:06:39.363Z,8.10
2022-12-14T09:09:13.614Z,8.65
2022-12-14T09:11:44.706Z,7.55
2022-12-14T09:14:12.436Z,7.72
2022-12-14T09:16:40.389Z,7.47
2022-12-14T09:19:08.159Z,8.95
2022-12-14T09:21:35.980Z,8.32
2022-12-14T09:24:03.740Z,8.23
2022-12-14T09:26:31.494Z,8.30
2022-12-14T09:28:59.121Z,7.10
2022-12-14T09:31:28.264Z,7.85
2022-12-14T09:33:56.851Z,8.00
2022-12-14T09:36:27.774Z,7.68
2022-12-14T09:38:57.542Z,6.28
2022-12-14T09:41:28.629Z,6.53
2022-12-14T09:44:07.101Z,6.55
2022-12-14T09:46:52.859Z,7.57
2022-12-14T09:49:40.593Z,5.75
2022-12-14T09:52:14.451Z,6.70
2022-12-14T09:54:44.454Z,7.53
2022-12-14T09:57:41.129Z,7.43
2022-12-14T10:00:20.477Z,6.97
2022-12-14T10:03:06.246Z,7.75
2022-12-14T10:05:57.831Z,6.60
2022-12-14T10:08:31.977Z,7.32
2022-12-14T10:11:16.408Z,8.25
2022-12-14T10:13:55.600Z,8.15
2022-12-14T10:16:36.977Z,7.95
2022-12-14T10:19:35.225Z,8.93
2022-12-14T10:22:12.261Z,8.68
2022-12-14T10:25:12.802Z,9.27
2022-12-14T10:28:16.515Z,11.80
2022-12-14T10:30:30.696Z,10.52
2022-12-14T10:33:03.467Z,8.52
2022-12-14T10:35:51.818Z,10.27
2022-12-14T10:38:29.690Z,9.57
2022-12-14T10:41:23.078Z,9.82
2022-12-14T10:44:03.585Z,10.05
2022-12-14T10:46:53.248Z,9.60
2022-12-14T10:49:44.840Z,9.70
2022-12-14T10:52:21.812Z,9.63
2022-12-14T10:54:54.136Z,10.02
2022-12-14T10:57:26.373Z,10.80
2022-12-14T11:00:10.486Z,10.60
2022-12-14T11:05:41.328Z,10.18
2022-12-14T11:08:09.564Z,11.10
2022-12-14T11:10:40.921Z,10.82
2022-12-14T11:13:18.716Z,11.07
2022-12-14T11:15:51.074Z,10.80
2022-12-14T11:18:20.258Z,11.13
2022-12-14T11:21:07.118Z,11.65
2022-12-14T11:23:44.641Z,10.68
2022-12-14T11:26:26.886Z,9.52
2022-12-14T11:28:57.523Z,10.05
2022-12-14T11:31:38.669Z,10.77
2022-12-14T11:34:22.183Z,10.27
2022-12-14T11:36:50.306Z,8.98
2022-12-14T11:39:25.341Z,9.65
2022-12-14T11:41:58.914Z,9.45
2022-12-14T11:44:37.165Z,9.13
2022-12-14T11:47:15.625Z,8.32
2022-12-14T11:49:45.114Z,7.72
2022-12-14T11:52:36.008Z,7.43
2022-12-14T11:55:16.213Z,10.07
2022-12-14T11:57:51.754Z,10.02
2022-12-14T12:00:36.191Z,8.75
2022-12-14T12:03:14.979Z,9.00
2022-12-14T12:05:44.404Z,8.52
2022-12-14T12:08:40.015Z,8.60
2022-12-14T12:11:22.144Z,7.85
2022-12-14T12:14:02.069Z,8.45
2022-12-14T12:16:33.059Z,10.68
2022-12-14T12:19:15.444Z,10.50
2022-12-14T12:21:45.039Z,10.00
2022-12-14T12:24:27.092Z,10.20
2022-12-14T12:26:57.978Z,9.90
2022-12-14T12:29:47.266Z,7.38
2022-12-14T12:32:26.852Z,9.93
2022-12-14T12:35:01.347Z,10.80
2022-12-14T12:37:44.928Z,8.98
2022-12-14T12:40:24.584Z,9.07
2022-12-14T12:43:02.261Z,10.20
2022-12-14T12:46:02.254Z,11.48
2022-12-14T12:48:47.634Z,12.20
2022-12-14T12:51:23.125Z,12.02
2022-12-14T12:53:56.692Z,11.77
2022-12-14T12:56:33.276Z,13.32
2022-12-14T12:59:02.356Z,11.82
2022-12-14T13:01:39.011Z,11.80
2022-12-14T13:04:12.960Z,11.43
2022-12-14T13:06:50.535Z,9.55
2022-12-14T13:09:28.958Z,11.65
2022-12-14T13:11:58.209Z,11.25
2022-12-14T13:14:35.352Z,11.88
2022-12-14T13:17:06.759Z,10.98
2022-12-14T13:19:52.170Z,10.95
2022-12-14T13:22:29.568Z,9.23
2022-12-14T13:25:02.609Z,11.05
2022-12-14T13:28:05.341Z,9.88
2022-12-14T13:30:38.713Z,7.13
2022-12-14T13:33:27.082Z,7.32
2022-12-14T13:36:03.438Z,9.85
2022-12-14T13:38:52.804Z,7.30
2022-12-14T13:41:41.283Z,10.40
2022-12-14T13:44:35.876Z,9.85
2022-12-14T13:47:19.784Z,9.40
2022-12-14T13:50:34.290Z,12.52
2022-12-14T13:52:47.881Z,10.02
2022-12-14T13:55:37.945Z,11.25
2022-12-14T13:58:42.237Z,10.50
2022-12-14T14:03:40.208Z,10.00
2022-12-14T14:06:37.146Z,10.15
2022-12-14T14:09:24.635Z,11.35
2022-12-14T14:12:02.422Z,10.80
2022-12-14T14:15:02.659Z,10.65
2022-12-14T14:17:43.300Z,10.82
2022-12-14T14:20:45.088Z,10.30
2022-12-14T14:23:16.040Z,10.68
2022-12-14T14:25:51.807Z,10.02
2022-12-14T14:28:23.155Z,10.32
2022-12-14T14:30:59.752Z,10.80
2022-12-14T14:33:47.762Z,11.23
2022-12-14T14:36:30.974Z,12.15
2022-12-14T14:39:00.952Z,11.00
2022-12-14T14:41:35.027Z,12.23
2022-12-14T14:44:15.166Z,11.32
2022-12-14T14:46:47.305Z,12.18
2022-12-14T14:49:21.121Z,10.95
2022-12-14T14:51:48.669Z,11.13
2022-12-14T14:57:54.901Z,11.18
2022-12-14T15:00:23.160Z,11.38
2022-12-14T15:02:55.120Z,9.93
2022-12-14T15:05:41.905Z,10.60
2022-12-14T15:08:40.332Z,11.25
2022-12-14T15:11:22.971Z,10.60
2022-12-14T15:14:25.492Z,10.55
2022-12-14T15:16:53.086Z,14.40
2022-12-14T15:19:24.870Z,15.95
2022-12-14T15:21:57.193Z,15.05
2022-12-14T15:24:26.270Z,16.10
2022-12-14T15:26:54.293Z,19.48
2022-12-14T15:29:28.777Z,17.98
2022-12-14T15:31:59.810Z,16.02
2022-12-14T15:36:55.927Z,14.93
2022-12-14T15:39:38.376Z,13.05
2022-12-14T15:42:10.570Z,13.73
2022-12-14T15:44:43.675Z,12.60
2022-12-14T15:47:31.525Z,12.70
2022-12-14T15:50:28.556Z,10.25
2022-12-14T15:53:11.472Z,11.35
2022-12-14T15:55:42.009Z,13.40
2022-12-14T15:58:24.282Z,11.65
2022-12-14T16:00:52.886Z,10.55
2022-12-14T16:03:30.503Z,10.35
2022-12-14T16:06:00.199Z,9.25
2022-12-14T16:08:30.007Z,10.10
2022-12-14T16:11:00.566Z,9.82
2022-12-14T16:13:35.858Z,9.18
2022-12-14T16:16:12.052Z,7.97
2022-12-14T16:18:51.295Z,7.90
2022-12-14T16:21:31.470Z,8.32
2022-12-14T16:24:12.863Z,7.75
2022-12-14T16:26:40.516Z,10.68
2022-12-14T16:29:23.304Z,7.88
2022-12-14T16:31:51.028Z,8.02
2022-12-14T16:34:23.551Z,12.35
2022-12-14T16:37:31.200Z,10.48
2022-12-14T16:42:31.335Z,7.47
2022-12-14T16:44:58.895Z,7.13
2022-12-14T16:48:06.707Z,7.65
2022-12-14T16:53:26.203Z,8.32
2022-12-14T16:56:15.130Z,10.15
2022-12-14T16:58:52.706Z,12.90
2022-12-14T17:01:27.814Z,10.23
2022-12-14T17:04:04.416Z,8.80
2022-12-14T17:06:53.567Z,9.35
2022-12-14T17:09:27.547Z,7.63
2022-12-14T17:11:58.916Z,7.20
2022-12-14T17:14:27.520Z,6.18
2022-12-14T17:17:03.919Z,8.20
2022-12-14T17:19:38.903Z,7.72
2022-12-14T17:22:15.228Z,7.78
2022-12-14T17:24:42.963Z,8.02
2022-12-14T17:27:16.101Z,15.20
2022-12-14T17:29:44.288Z,11.68
2022-12-14T17:32:15.298Z,8.10
2022-12-14T17:34:45.556Z,8.40
2022-12-14T17:37:22.100Z,8.23
2022-12-14T17:39:50.676Z,8.60
2022-12-14T17:42:20.972Z,11.70
2022-12-14T17:44:55.845Z,12.77
2022-12-14T17:47:26.576Z,13.57
2022-12-14T17:49:55.553Z,10.82
2022-12-14T17:52:32.296Z,10.95
2022-12-14T17:55:00.035Z,11.48
2022-12-14T17:57:28.056Z,11.45
2022-12-14T18:00:15.987Z,12.85
2022-12-14T18:02:45.871Z,14.02
2022-12-14T18:05:19.252Z,14.45
2022-12-14T18:07:49.789Z,12.02
2022-12-14T18:10:18.635Z,13.48
2022-12-14T18:12:46.239Z,13.80
2022-12-14T18:15:24.679Z,12.57
2022-12-14T18:17:52.310Z,12.35
2022-12-14T18:20:23.746Z,9.10
2022-12-14T18:22:52.014Z,9.05
2022-12-14T18:25:37.271Z,9.60
2022-12-14T18:28:06.975Z,9.30
2022-12-14T18:30:45.874Z,7.55
2022-12-14T18:33:21.954Z,9.43
2022-12-14T18:35:50.568Z,8.52
2022-12-14T18:38:18.548Z,9.25
2022-12-14T18:40:49.860Z,9.02
2022-12-14T18:43:26.349Z,9.20
2022-12-14T18:45:55.697Z,9.63
2022-12-14T18:48:24.749Z,10.50
2022-12-14T18:50:54.702Z,9.07
2022-12-14T18:53:24.008Z,8.18
2022-12-14T18:55:52.801Z,8.23
2022-12-14T18:58:23.900Z,7.95
2022-12-14T19:00:53.724Z,8.02
2022-12-14T19:03:22.097Z,8.50
2022-12-14T19:05:49.961Z,8.15
2022-12-14T19:08:18.107Z,9.30
2022-12-14T19:10:48.009Z,9.57
2022-12-14T19:13:23.445Z,8.70
2022-12-14T19:15:53.700Z,7.80
2022-12-14T19:18:21.657Z,10.75
2022-12-14T19:20:49.546Z,9.88
2022-12-14T19:23:19.210Z,8.90
2022-12-14T19:25:47.511Z,8.85
2022-12-14T19:28:32.938Z,9.43
2022-12-14T19:31:02.205Z,7.32
2022-12-14T19:33:30.953Z,7.57
2022-12-14T19:35:59.844Z,7.57
2022-12-14T19:38:28.431Z,6.90
2022-12-14T19:41:02.225Z,7.53
2022-12-14T19:43:30.795Z,7.05
2022-12-14T19:45:59.188Z,7.10
2022-12-14T19:48:26.743Z,6.22
2022-12-14T19:50:54.356Z,7.03
2022-12-14T19:53:24.099Z,6.45
2022-12-14T19:55:53.279Z,6.82
2022-12-14T19:58:30.327Z,6.85
2022-12-14T20:00:58.045Z,5.20
2022-12-14T20:03:26.113Z,7.32
2022-12-14T20:05:56.249Z,6.78
2022-12-14T20:08:30.469Z,7.75
2022-12-14T20:10:58.966Z,7.78
2022-12-14T20:13:28.229Z,6.82
2022-12-14T20:15:58.980Z,6.72
2022-12-14T20:18:28.067Z,7.05
2022-12-14T20:21:07.725Z,7.88
2022-12-14T20:23:42.664Z,6.53
2022-12-14T20:26:14.273Z,6.22
2022-12-14T20:28:42.056Z,6.38
2022-12-14T20:31:11.034Z,5.90
2022-12-14T20:33:39.070Z,5.63
2022-12-14T20:36:07.557Z,6.10
2022-12-14T20:38:36.419Z,7.13
2022-12-14T20:41:12.759Z,5.95
2022-12-14T20:43:44.885Z,6.15
2022-12-14T20:46:35.516Z,7.20
2022-12-14T20:49:09.944Z,6.82
2022-12-14T20:51:38.923Z,6.10
2022-12-14T20:54:09.369Z,5.50
2022-12-14T20:56:37.306Z,6.78
2022-12-14T20:59:06.179Z,6.63
2022-12-14T21:01:36.183Z,5.78
2022-12-14T21:04:04.783Z,5.68
2022-12-14T21:06:35.877Z,6.00
2022-12-14T21:09:09.659Z,6.70
2022-12-14T21:11:58.981Z,6.00
2022-12-14T21:14:32.435Z,7.05
2022-12-14T21:17:00.753Z,6.47
2022-12-14T21:19:28.864Z,6.85
2022-12-14T21:21:56.453Z,5.80
2022-12-14T21:27:23.769Z,5.47
2022-12-14T21:29:54.742Z,6.45
2022-12-14T21:32:24.637Z,6.03
2022-12-14T21:34:52.907Z,6.38
2022-12-14T21:37:20.953Z,6.70
2022-12-14T21:39:54.401Z,6.80
2022-12-14T21:42:26.562Z,6.40
2022-12-14T21:44:55.515Z,7.43
2022-12-14T21:47:29.212Z,6.95
2022-12-14T21:49:57.548Z,6.70
2022-12-14T21:52:27.325Z,6.25
2022-12-14T21:54:55.122Z,6.20
2022-12-14T21:57:50.380Z,6.55
2022-12-14T22:00:19.281Z,6.18
2022-12-14T22:02:47.247Z,5.82
2022-12-14T22:05:15.462Z,5.93
2022-12-14T22:07:45.855Z,5.78
2022-12-14T22:10:13.408Z,5.68
2022-12-14T22:12:41.180Z,7.40
2022-12-14T22:15:09.490Z,6.22
2022-12-14T22:17:37.476Z,6.07
2022-12-14T22:20:05.477Z,6.97
2022-12-14T22:22:34.072Z,6.55
2022-12-14T22:25:02.020Z,6.88
2022-12-14T22:27:29.456Z,6.15
2022-12-14T22:29:57.104Z,7.13
2022-12-14T22:32:24.665Z,6.60
2022-12-14T22:34:52.249Z,6.32
2022-12-14T22:37:19.846Z,6.80
2022-12-14T22:39:48.384Z,7.13
2022-12-14T22:42:16.629Z,6.63
2022-12-14T22:44:44.247Z,7.47
2022-12-14T22:47:12.182Z,6.50
2022-12-14T22:49:39.674Z,5.88
2022-12-14T22:52:07.733Z,6.75
2022-12-14T22:54:37.803Z,6.32
2022-12-14T22:57:13.997Z,5.70
2022-12-14T22:59:59.889Z,6.03
2022-12-14T23:02:29.967Z,6.50
2022-12-14T23:04:58.085Z,4.95
2022-12-14T23:07:25.593Z,5.20
2022-12-14T23:10:11.613Z,5.05
2022-12-14T23:12:58.053Z,5.32
2022-12-14T23:15:44.022Z,4.72
2022-12-14T23:18:30.237Z,4.82
2022-12-14T23:21:16.702Z,4.72
2022-12-14T23:24:04.366Z,5.47
2022-12-14T23:26:52.197Z,5.05
2022-12-14T23:29:38.254Z,4.68
2022-12-14T23:32:24.371Z,5.63
2022-12-14T23:35:10.544Z,5.47
2022-12-14T23:37:56.990Z,4.45
2022-12-14T23:40:43.882Z,4.80
2022-12-14T23:43:32.630Z,4.78
2022-12-14T23:46:19.874Z,5.10
2022-12-14T23:49:15.078Z,4.63
2022-12-14T23:52:02.589Z,5.60
2022-12-14T23:54:48.864Z,5.18
2022-12-14T23:57:35.633Z,5.20
